Time;durP1;ratioP1;P1;durP2;ratioP2;P2;SDS_P1;SDS_P2;PMS_P1;PMS_P2;Temp;Humidity;BMP_temperature;BMP_pressure;BME280_temperature;BME280_humidity;BME280_pressure;Samples;Min_cycle;Max_cycle;Signal;HPM_P1;HPM_P2
2023/05/29 00:01:08;;;;;;;;;12.33;12.33;;;;;-147.17;100.00;10681.81;5080462;27;51366;-58
2023/05/29 00:03:34;;;;;;;;;10.67;10.00;;;;;-147.17;100.00;9933.56;5090776;27;52884;-59
2023/05/29 00:06:02;;;;;;;;;14.00;11.00;;;;;-147.17;100.00;9684.19;5080004;27;51108;-58
2023/05/29 00:08:28;;;;;;;;;13.33;12.00;;;;;-147.17;100.00;10182.97;5090804;27;51081;-58
2023/05/29 00:10:53;;;;;;;;;13.67;11.00;;;;;-147.17;100.00;7191.28;5092402;27;51416;-58
2023/05/29 00:13:19;;;;;;;;;12.00;12.00;;;;;-147.17;100.00;7440.50;5089728;27;53828;-58
2023/05/29 00:15:44;;;;;;;;;13.33;12.67;;;;;-147.17;100.00;5696.34;5092936;27;51084;-59
2023/05/29 00:18:10;;;;;;;;;9.00;9.00;;;;;-147.17;100.00;7689.75;5091610;27;51767;-59
2023/05/29 00:20:35;;;;;;;;;13.67;13.00;;;;;-147.17;100.00;6942.09;5091162;27;51190;-59
2023/05/29 00:23:05;;;;;;;;;18.67;15.67;;;;;-147.17;100.00;6692.91;5072593;27;51772;-58
2023/05/29 00:25:31;;;;;;;;;12.67;12.67;;;;;-147.17;100.00;7440.50;5081605;27;51154;-58
2023/05/29 00:27:57;;;;;;;;;11.00;10.33;;;;;-147.17;100.00;6692.91;5083490;27;51022;-58
2023/05/29 00:30:22;;;;;;;;;11.00;11.00;;;;;-147.17;100.00;6194.59;5086941;27;50990;-59
2023/05/29 00:32:47;;;;;;;;;12.33;11.33;;;;;-147.17;100.00;6443.75;5092153;27;52156;-59
2023/05/29 00:35:13;;;;;;;;;12.00;11.00;;;;;-147.17;100.00;6942.09;5085677;27;51608;-59
2023/05/29 00:37:38;;;;;;;;;12.00;11.00;;;;;-147.17;100.00;5447.22;5071699;28;50923;-59
2023/05/29 00:40:04;;;;;;;;;12.67;12.67;;;;;-147.17;100.00;6194.59;5072402;27;51262;-59
2023/05/29 00:42:29;;;;;;;;;13.00;12.00;;;;;-147.17;100.00;5447.22;5072385;27;51262;-60
2023/05/29 00:44:55;;;;;;;;;12.33;12.33;;;;;-147.17;100.00;5696.34;5072090;28;51134;-59
2023/05/29 00:47:20;;;;;;;;;10.00;9.33;;;;;-147.17;100.00;5945.44;5072114;28;50904;-59
2023/05/29 00:49:46;;;;;;;;;12.00;11.00;;;;;-147.17;100.00;4949.06;5076972;27;51144;-59
2023/05/29 00:52:12;;;;;;;;;12.67;11.00;;;;;-147.17;100.00;3703.94;5085478;27;52016;-59
2023/05/29 00:54:38;;;;;;;;;11.33;10.33;;;;;-147.17;100.00;4450.97;5091966;27;51155;-60
2023/05/29 00:57:05;;;;;;;;;11.00;11.00;;;;;-147.17;100.00;3952.94;5088890;27;51164;-60
2023/05/29 00:59:33;;;;;;;;;10.33;10.00;;;;;-147.17;100.00;4450.97;5091884;27;52085;-60
2023/05/29 01:02:00;;;;;;;;;15.00;12.67;;;;;-147.17;100.00;4450.97;5075857;27;52731;-59
2023/05/29 01:04:27;;;;;;;;;9.67;9.67;;;;;-147.17;100.00;4450.97;5080900;27;51224;-58
2023/05/29 01:06:52;;;;;;;;;11.00;10.00;;;;;-147.17;100.00;3952.94;5085762;27;51297;-59
2023/05/29 01:09:18;;;;;;;;;11.00;10.50;;;;;-147.17;100.00;3703.94;5080839;27;50959;-58
2023/05/29 01:12:02;;;;;;;;;11.50;11.00;;;;;-147.17;100.00;2708.13;5078080;27;51786;-58
2023/05/29 01:14:55;;;;;;;;;12.00;10.67;;;;;-147.17;100.00;2957.06;5092501;27;51206;-58
2023/05/29 01:17:57;;;;;;;;;13.00;11.00;;;;;-147.17;100.00;2957.06;5085869;27;51098;-58
2023/05/29 01:20:31;;;;;;;;;14.33;12.00;;;;;-147.17;100.00;2210.31;5093045;27;51031;-59
2023/05/29 01:23:37;;;;;;;;;10.33;9.67;;;;;-147.17;100.00;2210.31;5091779;27;51062;-58
2023/05/29 01:26:22;;;;;;;;;15.67;13.00;;;;;-147.17;100.00;1961.44;5083046;27;51081;-58
2023/05/29 01:28:51;;;;;;;;;10.00;10.00;;;;;-147.17;100.00;1214.91;5077671;27;51070;-59
2023/05/29 01:31:23;;;;;;;;;11.00;10.33;;;;;-147.17;100.00;966.09;5078786;27;52242;-58
2023/05/29 01:33:53;;;;;;;;;10.67;9.67;;;;;-147.17;100.00;717.28;5092105;27;50911;-59
2023/05/29 01:36:19;;;;;;;;;12.33;12.00;;;;;-147.17;100.00;219.72;5087122;27;51165;-58
2023/05/29 01:38:44;;;;;;;;;8.75;8.00;;;;;-147.17;100.00;-1023.88;5091702;27;50968;-59
2023/05/29 01:41:10;;;;;;;;;12.75;12.25;;;;;-147.17;100.00;-1023.88;5093737;27;51355;-59
2023/05/29 01:43:36;;;;;;;;;10.33;10.33;;;;;-147.17;100.00;-1272.53;5093584;27;50970;-58
2023/05/29 01:46:02;;;;;;;;;12.33;11.00;;;;;-147.17;100.00;-1521.19;5078705;27;51157;-58
2023/05/29 01:48:28;;;;;;;;;13.00;12.33;;;;;-147.17;100.00;-1769.84;5082265;27;51330;-60
2023/05/29 01:50:55;;;;;;;;;11.00;11.00;;;;;-147.17;100.00;-1769.84;5088492;27;51353;-60
2023/05/29 01:53:20;;;;;;;;;11.67;10.67;;;;;-147.17;100.00;-1769.84;5091669;27;53689;-59
2023/05/29 01:55:46;;;;;;;;;11.50;9.00;;;;;-147.17;100.00;-2515.66;5092319;27;51074;-60
2023/05/29 01:58:14;;;;;;;;;10.33;10.00;;;;;-147.17;100.00;-2764.22;5092891;27;51242;-60
2023/05/29 02:00:40;;;;;;;;;7.67;7.67;;;;;-147.17;100.00;-3012.78;5082570;27;51445;-59
2023/05/29 02:03:05;;;;;;;;;10.00;9.67;;;;;-147.17;100.00;-3012.78;5089386;27;51760;-59
2023/05/29 02:05:30;;;;;;;;;10.67;9.67;;;;;-147.17;100.00;-4006.88;5087765;27;50995;-59
2023/05/29 02:07:56;;;;;;;;;10.67;10.00;;;;;-147.17;100.00;-4006.88;5082785;27;51204;-60
2023/05/29 02:10:21;;;;;;;;;11.00;10.67;;;;;-147.17;100.00;-4255.34;5093566;27;50915;-59
2023/05/29 02:12:46;;;;;;;;;12.67;10.67;;;;;-147.17;100.00;-4503.81;5091179;27;51236;-59
2023/05/29 02:15:12;;;;;;;;;10.33;10.33;;;;;-147.17;100.00;-5000.69;5089351;27;51211;-60
2023/05/29 02:17:37;;;;;;;;;12.75;12.00;;;;;-147.17;100.00;-5745.88;5092849;27;51554;-59
2023/05/29 02:20:07;;;;;;;;;12.25;11.25;;;;;-147.17;100.00;-5745.88;5080648;27;51025;-59
2023/05/29 02:22:32;;;;;;;;;13.50;12.25;;;;;-147.17;100.00;-5745.88;5083981;27;52323;-60
2023/05/29 02:24:57;;;;;;;;;11.25;10.75;;;;;-147.17;100.00;-7235.84;5090226;27;51093;-60
2023/05/29 02:27:23;;;;;;;;;10.00;10.00;;;;;-147.17;100.00;-6490.94;5092503;27;51043;-59
2023/05/29 02:29:48;;;;;;;;;11.00;10.00;;;;;-147.17;100.00;-7484.09;5090359;27;51279;-59
2023/05/29 02:32:13;;;;;;;;;10.33;8.67;;;;;-147.17;100.00;-7484.09;5089581;27;51086;-60
2023/05/29 02:34:39;;;;;;;;;9.00;8.67;;;;;-147.17;100.00;-6987.56;5088919;27;51207;-59
2023/05/29 02:37:04;;;;;;;;;13.00;11.67;;;;;-147.17;100.00;-7484.09;5076414;27;51218;-59
2023/05/29 02:39:30;;;;;;;;;10.00;9.67;;;;;-147.17;100.00;-8228.81;5088388;27;50996;-59
2023/05/29 02:41:55;;;;;;;;;11.00;11.00;;;;;-147.17;100.00;-8228.81;5086601;27;52693;-60
2023/05/29 02:44:20;;;;;;;;;11.67;11.67;;;;;-147.17;100.00;-8973.38;5089671;27;51210;-59
2023/05/29 02:46:46;;;;;;;;;12.67;12.00;;;;;-147.17;100.00;-9965.91;5079349;27;51089;-59
2023/05/29 02:49:11;;;;;;;;;10.67;10.67;;;;;-147.17;100.00;-9469.69;5084710;27;51248;-60
2023/05/29 02:51:37;;;;;;;;;9.33;9.33;;;;;-147.17;100.00;-9221.53;5085994;27;50880;-59
2023/05/29 02:54:02;;;;;;;;;10.00;10.00;;;;;-147.17;100.00;-9469.69;5087889;27;51211;-58
2023/05/29 02:56:28;;;;;;;;;12.67;11.33;;;;;-147.17;100.00;-11206.22;5092251;27;50956;-60
2023/05/29 02:58:53;;;;;;;;;13.00;12.00;;;;;-147.17;100.00;-10958.19;5091547;27;51339;-59
2023/05/29 03:01:19;;;;;;;;;12.00;11.00;;;;;-147.17;100.00;-10710.16;5092952;27;51979;-59
2023/05/29 03:03:44;;;;;;;;;10.00;9.33;;;;;-147.17;100.00;-11454.25;5087205;27;51049;-59
2023/05/29 03:06:09;;;;;;;;;11.00;10.00;;;;;-147.17;100.00;-10958.19;5073617;27;51081;-59
2023/05/29 03:08:39;;;;;;;;;13.67;11.00;;;;;-147.17;100.00;-12941.97;5089550;27;51306;-59
2023/05/29 03:11:05;;;;;;;;;14.00;12.67;;;;;-147.17;100.00;-11950.22;5079526;27;51834;-59
2023/05/29 03:13:34;;;;;;;;;11.00;10.33;;;;;-147.17;100.00;-11950.22;5093017;27;50968;-59
2023/05/29 03:15:59;;;;;;;;;11.33;11.33;;;;;-147.17;100.00;-11702.25;5093754;27;51141;-59
2023/05/29 03:18:25;;;;;;;;;10.00;10.00;;;;;-147.17;100.00;-11950.22;5093346;27;51041;-60
2023/05/29 03:20:50;;;;;;;;;14.67;13.00;;;;;-147.17;100.00;-12446.13;5088989;27;51059;-59
2023/05/29 03:23:15;;;;;;;;;11.00;11.00;;;;;-147.17;100.00;-13189.88;5087158;27;51140;-59
2023/05/29 03:25:41;;;;;;;;;14.00;11.67;;;;;-147.17;100.00;-13437.75;5078946;27;51153;-59
2023/05/29 03:28:06;;;;;;;;;12.67;11.67;;;;;-147.17;100.00;-13685.63;5091816;27;51024;-59
2023/05/29 03:30:31;;;;;;;;;11.33;10.33;;;;;-147.17;100.00;-13933.50;5091013;27;52790;-59
2023/05/29 03:32:57;;;;;;;;;13.67;13.67;;;;;-147.17;100.00;-14181.31;5088508;27;54752;-60
2023/05/29 03:35:22;;;;;;;;;9.67;9.00;;;;;-147.17;100.00;-15172.50;5093350;27;51724;-59
2023/05/29 03:37:47;;;;;;;;;12.00;12.00;;;;;-147.17;100.00;-15172.50;5092469;27;51404;-59
2023/05/29 03:40:13;;;;;;;;;12.00;11.00;;;;;-147.17;100.00;-14676.94;5089059;27;51268;-60
2023/05/29 03:42:38;;;;;;;;;12.33;11.00;;;;;-147.17;100.00;-14924.75;5078298;27;50991;-59
2023/05/29 03:45:04;;;;;;;;;13.00;13.00;;;;;-147.17;100.00;-15420.25;5092334;27;50941;-59
2023/05/29 03:47:30;;;;;;;;;13.33;12.67;;;;;-147.17;100.00;-15172.50;5092506;27;51091;-60
2023/05/29 03:49:55;;;;;;;;;15.00;12.00;;;;;-147.17;100.00;-15172.50;5091365;27;52575;-60
2023/05/29 03:52:20;;;;;;;;;13.00;12.67;;;;;-147.17;100.00;-15420.25;5081408;27;51188;-60
2023/05/29 03:54:46;;;;;;;;;11.00;11.00;;;;;-147.17;100.00;-15420.25;5087292;27;50966;-60
2023/05/29 03:57:11;;;;;;;;;10.33;10.33;;;;;-147.17;100.00;-15668.00;5089140;27;51094;-59
2023/05/29 03:59:37;;;;;;;;;14.33;13.00;;;;;-147.17;100.00;-15420.25;5073618;27;53482;-59
2023/05/29 04:02:02;;;;;;;;;12.33;12.00;;;;;-147.17;100.00;-15668.00;5082857;27;50967;-59
2023/05/29 04:04:28;;;;;;;;;10.67;10.67;;;;;-147.17;100.00;-15668.00;5093121;27;51478;-59
2023/05/29 04:06:53;;;;;;;;;14.67;14.00;;;;;-147.17;100.00;-15915.72;5090876;27;51003;-58
2023/05/29 04:09:19;;;;;;;;;15.00;13.00;;;;;-147.17;100.00;-15915.72;5074883;27;52826;-59
2023/05/29 04:11:44;;;;;;;;;12.33;11.67;;;;;-147.17;100.00;-15915.72;5080759;27;51061;-59
2023/05/29 04:14:10;;;;;;;;;15.00;14.33;;;;;-147.17;100.00;-15917.19;5089673;27;51372;-59
2023/05/29 04:16:35;;;;;;;;;13.67;13.33;;;;;-147.17;100.00;-15915.72;5083564;27;51208;-59
2023/05/29 04:19:00;;;;;;;;;12.33;12.33;;;;;-147.17;100.00;-15915.72;5087653;27;51093;-59
2023/05/29 04:21:26;;;;;;;;;14.00;13.67;;;;;-147.17;100.00;-15917.19;5092447;27;51383;-60
2023/05/29 04:23:52;;;;;;;;;16.33;15.00;;;;;-147.17;100.00;-15917.19;5089745;27;51287;-59
2023/05/29 04:26:17;;;;;;;;;12.00;11.00;;;;;-147.17;100.00;-15917.19;5084173;27;51187;-59
2023/05/29 04:28:43;;;;;;;;;14.00;11.67;;;;;-147.17;100.00;-15917.19;5073352;27;52982;-60
2023/05/29 04:31:13;;;;;;;;;13.67;13.00;;;;;-147.17;100.00;-15917.19;5075477;27;51163;-59
2023/05/29 04:33:39;;;;;;;;;11.33;11.33;;;;;-147.17;100.00;-15917.19;5079227;27;50970;-60
2023/05/29 04:36:05;;;;;;;;;12.00;12.00;;;;;-147.17;100.00;-15917.19;5092634;27;51008;-59
2023/05/29 04:38:31;;;;;;;;;16.00;15.67;;;;;-147.17;100.00;-15917.19;5073629;27;51201;-59
2023/05/29 04:40:58;;;;;;;;;10.00;10.00;;;;;-147.17;100.00;-15917.19;5083473;27;51150;-61
2023/05/29 04:43:26;;;;;;;;;17.33;14.67;;;;;-147.17;100.00;-15917.19;5089654;27;51153;-59
2023/05/29 04:45:52;;;;;;;;;12.33;12.33;;;;;-147.17;100.00;-15917.19;5094100;27;50911;-59
2023/05/29 04:48:17;;;;;;;;;15.33;15.00;;;;;-147.17;100.00;-15917.19;5089624;27;52300;-59
2023/05/29 04:50:44;;;;;;;;;15.00;14.00;;;;;-147.17;100.00;-15917.19;5080941;27;51034;-59
2023/05/29 04:53:10;;;;;;;;;15.00;14.67;;;;;-147.17;100.00;-15917.19;5087830;27;51827;-60
2023/05/29 04:55:36;;;;;;;;;13.67;13.67;;;;;-147.17;100.00;-15917.19;5075824;27;50959;-59
2023/05/29 04:58:02;;;;;;;;;16.00;13.33;;;;;-147.17;100.00;-15917.19;5090852;27;52651;-61
2023/05/29 05:00:27;;;;;;;;;15.00;13.33;;;;;-147.17;100.00;-15917.19;5094563;27;51217;-59
2023/05/29 05:02:52;;;;;;;;;15.00;14.00;;;;;-147.17;100.00;-15917.19;5090840;27;51156;-59
2023/05/29 05:05:17;;;;;;;;;15.00;14.67;;;;;-147.17;100.00;-15917.19;5084663;27;54714;-59
2023/05/29 05:07:43;;;;;;;;;18.00;17.00;;;;;-147.17;100.00;-15917.19;5090938;27;57051;-59
2023/05/29 05:10:09;;;;;;;;;12.67;12.33;;;;;-147.17;100.00;-15917.19;5094743;27;51229;-59
2023/05/29 05:12:34;;;;;;;;;15.33;14.67;;;;;-147.17;100.00;-15917.19;5093140;27;51127;-61
2023/05/29 05:14:59;;;;;;;;;17.33;16.67;;;;;-147.17;100.00;-15915.72;5080342;27;51499;-60
2023/05/29 05:17:25;;;;;;;;;18.00;15.67;;;;;-147.17;100.00;-15172.50;5094132;27;51736;-59
2023/05/29 05:19:52;;;;;;;;;14.33;14.33;;;;;-147.17;100.00;-14181.31;5096046;27;51102;-59
2023/05/29 05:22:17;;;;;;;;;17.67;17.00;;;;;-147.17;100.00;-13189.88;5091368;27;51266;-58
2023/05/29 05:24:42;;;;;;;;;14.33;13.33;;;;;-147.17;100.00;-12198.19;5077170;27;51121;-59
2023/05/29 05:27:08;;;;;;;;;16.33;15.33;;;;;-147.17;100.00;-10710.16;5088875;27;51653;-60
2023/05/29 05:29:33;;;;;;;;;15.25;14.50;;;;;-147.17;100.00;-8725.22;5094358;27;50940;-60
2023/05/29 05:31:58;;;;;;;;;15.67;15.00;;;;;-147.17;100.00;-7732.34;5093165;27;57760;-59
2023/05/29 05:34:24;;;;;;;;;16.33;14.33;;;;;-147.17;100.00;-6490.94;5095611;27;51056;-59
2023/05/29 05:36:49;;;;;;;;;17.67;14.67;;;;;-147.17;100.00;-5497.50;5088974;27;53005;-60
2023/05/29 05:39:15;;;;;;;;;11.33;10.00;;;;;-147.17;100.00;-4255.34;5092351;27;50942;-59
2023/05/29 05:41:40;;;;;;;;;18.67;17.33;;;;;-147.17;100.00;-526.47;5080572;27;51247;-59
2023/05/29 05:44:06;;;;;;;;;17.67;15.33;;;;;-147.17;100.00;468.50;5090362;27;51327;-59
2023/05/29 05:46:31;;;;;;;;;14.67;14.33;;;;;-147.17;100.00;1214.91;5092786;27;51156;-59
2023/05/29 05:48:57;;;;;;;;;17.67;15.33;;;;;-147.17;100.00;2459.22;5081533;27;51115;-59
2023/05/29 05:51:23;;;;;;;;;16.33;15.00;;;;;-147.17;100.00;5198.13;5095470;27;51245;-60
2023/05/29 05:53:48;;;;;;;;;14.67;12.67;;;;;-147.17;100.00;8437.53;5087078;27;51423;-60
2023/05/29 05:56:13;;;;;;;;;16.33;15.00;;;;;-147.17;100.00;9933.56;5092958;27;51618;-60
2023/05/29 05:58:39;;;;;;;;;16.67;14.00;;;;;-147.17;100.00;10182.97;5094362;27;51110;-58
2023/05/29 06:01:06;;;;;;;;;15.33;14.00;;;;;-147.17;100.00;12178.69;5089200;27;51362;-59
2023/05/29 06:03:33;;;;;;;;;18.75;16.00;;;;;-147.17;100.00;14175.44;5090249;27;52352;-60
2023/05/29 06:05:58;;;;;;;;;15.33;14.33;;;;;-147.17;100.00;14674.81;5089650;27;52089;-61
2023/05/29 06:08:24;;;;;;;;;16.75;16.75;;;;;-147.17;100.00;18921.88;5091352;27;51245;-58
2023/05/29 06:10:49;;;;;;;;;13.67;13.00;;;;;-147.17;100.00;19671.84;5084201;27;51043;-59
2023/05/29 06:13:16;;;;;;;;;15.67;15.00;;;;;-147.17;100.00;22923.34;5092441;27;51161;-59
2023/05/29 06:15:42;;;;;;;;;15.67;14.33;;;;;-147.17;100.00;27018.97;5103107;27;53319;-59
2023/05/29 06:18:07;;;;;;;;;14.67;14.00;;;;;-147.17;100.00;27627.59;5082289;27;51229;-58
2023/05/29 06:20:33;;;;;;;;;17.00;17.00;;;;;-147.17;100.00;27880.09;5080631;27;51156;-59
2023/05/29 06:22:58;;;;;;;;;16.00;14.33;;;;;-147.17;100.00;28600.47;5078711;27;51318;-60
2023/05/29 06:25:32;;;;;;;;;15.75;15.50;;;;;-147.17;100.00;29663.63;5087864;27;54938;-59
2023/05/29 06:27:57;;;;;;;;;17.00;15.00;;;;;-147.17;100.00;30174.75;5085159;27;51128;-59
2023/05/29 06:30:23;;;;;;;;;15.00;14.33;;;;;-147.17;100.00;32241.50;5090715;27;51296;-59
2023/05/29 06:32:48;;;;;;;;;16.00;16.00;;;;;-147.17;100.00;34762.25;5092024;27;51421;-58
2023/05/29 06:35:14;;;;;;;;;13.25;13.00;;;;;-147.17;100.00;35001.47;5089143;27;60351;-58
2023/05/29 06:37:39;;;;;;;;;14.00;13.00;;;;;-147.17;100.00;36996.22;5092093;27;51492;-59
2023/05/29 06:40:05;;;;;;;;;16.33;14.67;;;;;-147.17;100.00;36776.50;5092298;27;51496;-59
2023/05/29 06:42:30;;;;;;;;;17.33;13.67;;;;;-147.17;100.00;38405.13;5093061;27;51365;-59
2023/05/29 06:44:56;;;;;;;;;15.67;14.67;;;;;-147.17;100.00;38051.84;5084612;27;51938;-59
2023/05/29 06:47:21;;;;;;;;;18.00;16.00;;;;;-147.17;100.00;39190.22;5078826;27;51059;-58
2023/05/29 06:49:46;;;;;;;;;16.00;16.00;;;;;-147.17;100.00;39192.19;5075705;27;51096;-60
2023/05/29 06:52:12;;;;;;;;;15.00;15.00;;;;;-147.17;100.00;39747.75;5084833;27;51383;-59
2023/05/29 06:54:37;;;;;;;;;15.33;14.67;;;;;-147.17;100.00;40654.91;5085837;27;59731;-59
2023/05/29 06:57:02;;;;;;;;;17.33;16.00;;;;;-147.17;100.00;40776.66;5087514;27;51046;-59
2023/05/29 06:59:28;;;;;;;;;13.33;13.33;;;;;-147.17;100.00;41758.66;5085409;27;51524;-59
2023/05/29 07:01:53;;;;;;;;;13.67;13.67;;;;;-147.17;100.00;42589.63;5084826;27;51373;-61
2023/05/29 07:04:18;;;;;;;;;15.00;14.33;;;;;-147.17;100.00;42129.94;5080402;27;51677;-59
2023/05/29 07:06:45;;;;;;;;;13.33;11.67;;;;;-147.17;100.00;42145.63;5083362;27;51306;-59
2023/05/29 07:09:10;;;;;;;;;16.33;15.33;;;;;-147.17;100.00;42163.31;5075204;27;51364;-60
2023/05/29 07:11:37;;;;;;;;;15.67;13.67;;;;;-147.17;100.00;42141.72;5086657;27;51148;-59
2023/05/29 07:14:03;;;;;;;;;14.33;14.00;;;;;-147.17;100.00;42774.31;5086465;27;51168;-59
2023/05/29 07:16:28;;;;;;;;;14.67;13.67;;;;;-147.17;100.00;42654.47;5083777;27;51628;-61
2023/05/29 07:18:53;;;;;;;;;16.00;15.33;;;;;-147.17;100.00;42499.25;5087377;27;54334;-59
2023/05/29 07:21:20;;;;;;;;;14.67;14.67;;;;;-147.17;100.00;42966.88;5079222;27;51442;-59
2023/05/29 07:23:45;;;;;;;;;16.00;15.00;;;;;-147.17;100.00;43010.09;5090267;27;51474;-60
2023/05/29 07:26:10;;;;;;;;;12.00;11.33;;;;;-147.17;100.00;43161.41;5087901;27;51054;-58
2023/05/29 07:28:36;;;;;;;;;11.33;10.33;;;;;-147.17;100.00;43971.06;5082196;27;51168;-59
2023/05/29 07:31:01;;;;;;;;;13.67;13.67;;;;;-147.17;100.00;44079.16;5081696;27;51401;-58
2023/05/29 07:33:26;;;;;;;;;14.00;13.67;;;;;-147.17;100.00;44026.09;5086269;27;51240;-60
2023/05/29 07:35:52;;;;;;;;;16.00;15.00;;;;;-147.17;100.00;44269.81;5084594;27;55794;-59
2023/05/29 07:38:17;;;;;;;;;15.67;15.67;;;;;-147.17;100.00;44187.25;5089235;27;51439;-59
2023/05/29 07:40:42;;;;;;;;;13.33;13.33;;;;;-147.17;100.00;44607.88;5080946;27;50991;-59
2023/05/29 07:43:08;;;;;;;;;17.00;16.33;;;;;-147.17;100.00;44167.59;5090544;27;51148;-59
2023/05/29 07:45:33;;;;;;;;;14.00;13.33;;;;;-147.17;100.00;44458.50;5079328;27;51228;-61
2023/05/29 07:47:58;;;;;;;;;17.00;16.00;;;;;-147.17;100.00;44045.75;5079055;27;51161;-60
2023/05/29 07:50:24;;;;;;;;;15.67;14.33;;;;;-147.17;100.00;43949.44;5088357;27;51332;-60
2023/05/29 07:52:49;;;;;;;;;14.00;13.00;;;;;-147.17;100.00;44289.47;5082409;27;52029;-59
2023/05/29 07:55:14;;;;;;;;;13.00;13.00;;;;;-147.17;100.00;44169.56;5073942;27;51173;-59
2023/05/29 07:57:40;;;;;;;;;15.33;15.00;;;;;-147.17;100.00;44195.13;5075511;27;51120;-60
2023/05/29 08:00:07;;;;;;;;;14.33;14.33;;;;;-147.17;100.00;44088.97;5088532;27;52497;-59
2023/05/29 08:02:32;;;;;;;;;15.00;13.33;;;;;-147.17;100.00;44234.41;5079074;27;52726;-59
2023/05/29 08:04:57;;;;;;;;;14.33;13.67;;;;;-147.17;100.00;44643.28;5081953;27;51311;-58
2023/05/29 08:07:23;;;;;;;;;13.67;13.67;;;;;-147.17;100.00;44462.44;5077679;27;50989;-59
2023/05/29 08:09:48;;;;;;;;;14.67;13.67;;;;;-147.17;100.00;44600.03;5084688;27;51187;-59
2023/05/29 08:12:14;;;;;;;;;18.67;17.00;;;;;-147.17;100.00;44387.72;5079685;27;52402;-59
2023/05/29 08:14:39;;;;;;;;;18.33;15.00;;;;;-147.17;100.00;44087.00;5086072;27;51350;-59
2023/05/29 08:17:05;;;;;;;;;14.00;14.00;;;;;-147.17;100.00;43927.81;5081516;27;51221;-57
2023/05/29 08:19:30;;;;;;;;;16.00;16.00;;;;;-147.17;100.00;43735.22;5081113;27;51125;-66
2023/05/29 08:21:55;;;;;;;;;14.00;14.00;;;;;-147.17;100.00;43857.06;5091568;27;52317;-65
2023/05/29 08:24:21;;;;;;;;;16.67;14.33;;;;;-147.17;100.00;43664.47;5091927;27;51086;-66
2023/05/29 08:26:46;;;;;;;;;14.00;13.00;;;;;-147.17;100.00;43627.13;5089901;27;51099;-59
2023/05/29 08:29:12;;;;;;;;;15.00;14.67;;;;;-147.17;100.00;43800.06;5094441;27;50901;-58
2023/05/29 08:31:37;;;;;;;;;14.75;14.75;;;;;-147.17;100.00;43735.22;5096945;27;52098;-59
2023/05/29 08:34:02;;;;;;;;;10.67;10.67;;;;;-147.17;100.00;43570.13;5082644;27;51518;-58
2023/05/29 08:36:27;;;;;;;;;16.00;16.00;;;;;-147.17;100.00;43499.38;5098060;27;51087;-58
2023/05/29 08:38:53;;;;;;;;;12.33;12.33;;;;;-147.17;100.00;43701.81;5088124;27;51605;-60
2023/05/29 08:41:31;;;;;;;;;16.25;15.25;;;;;-147.17;100.00;43473.84;5091323;27;52128;-63
2023/05/29 08:43:59;;;;;;;;;17.50;16.50;;;;;-147.17;100.00;43247.84;5084578;27;51175;-61
2023/05/29 08:46:26;;;;;;;;;14.75;14.50;;;;;-147.17;100.00;43524.94;5083256;27;51172;-62
2023/05/29 08:48:57;;;;;;;;;15.00;15.00;;;;;-147.17;100.00;43479.75;5091941;27;51298;-63
2023/05/29 08:51:29;;;;;;;;;16.00;15.67;;;;;-147.17;100.00;43318.59;5091030;27;51838;-65
2023/05/29 08:53:55;;;;;;;;;15.33;15.33;;;;;-147.17;100.00;43249.81;5103219;27;51323;-63
2023/05/29 08:56:22;;;;;;;;;14.67;13.67;;;;;-147.17;100.00;42894.16;5094711;27;51511;-62
2023/05/29 08:58:48;;;;;;;;;15.75;15.25;;;;;-147.17;100.00;43232.13;5087361;27;51113;-62
2023/05/29 09:01:14;;;;;;;;;17.00;15.00;;;;;-147.17;100.00;43691.97;5102889;27;52031;-62
2023/05/29 09:03:41;;;;;;;;;15.00;15.00;;;;;-147.17;100.00;43691.97;5100167;27;51229;-62
2023/05/29 09:06:08;;;;;;;;;15.67;15.67;;;;;-147.17;100.00;43558.34;5087680;27;51096;-62
2023/05/29 09:08:33;;;;;;;;;13.00;13.00;;;;;-147.17;100.00;43522.97;5094564;27;51214;-62
2023/05/29 09:10:59;;;;;;;;;16.67;15.33;;;;;-147.17;100.00;43578.00;5088201;27;51533;-63
2023/05/29 09:13:24;;;;;;;;;15.00;15.00;;;;;-147.17;100.00;43487.59;5089977;27;52628;-61
2023/05/29 09:15:50;;;;;;;;;13.33;12.67;;;;;-147.17;100.00;43283.22;5089146;27;51120;-62
2023/05/29 09:18:17;;;;;;;;;12.33;11.33;;;;;-147.17;100.00;43006.16;5089818;27;51155;-65
2023/05/29 09:20:43;;;;;;;;;16.25;16.00;;;;;-147.17;100.00;42921.69;5093760;27;52717;-60
2023/05/29 09:23:09;;;;;;;;;16.50;16.25;;;;;-147.17;100.00;42845.06;5086123;27;51007;-61
2023/05/29 09:25:40;;;;;;;;;15.33;15.00;;;;;-147.17;100.00;42748.78;5091974;27;50999;-61
2023/05/29 09:28:08;;;;;;;;;18.00;16.50;;;;;-147.17;100.00;42888.28;5083547;27;51443;-62
2023/05/29 09:30:38;;;;;;;;;14.00;13.75;;;;;-147.17;100.00;42913.81;5092295;27;51490;-61
2023/05/29 09:33:05;;;;;;;;;18.00;18.00;;;;;-147.17;100.00;42860.78;5088584;27;51236;-62
2023/05/29 09:35:34;;;;;;;;;15.00;15.00;;;;;-147.17;100.00;42656.44;5069529;27;51325;-63
2023/05/29 09:38:01;;;;;;;;;18.00;17.67;;;;;-147.17;100.00;42623.03;5084867;27;51158;-62
2023/05/29 09:40:26;;;;;;;;;18.00;17.00;;;;;-147.17;100.00;42619.09;5086598;27;51450;-66
2023/05/29 09:42:52;;;;;;;;;16.50;16.25;;;;;-147.17;100.00;42540.53;5083242;27;51458;-69
2023/05/29 09:45:18;;;;;;;;;19.00;18.50;;;;;-147.17;100.00;42216.38;5090975;27;51050;-63
2023/05/29 09:47:43;;;;;;;;;17.75;17.75;;;;;-147.17;100.00;42029.75;5085695;27;51277;-63
2023/05/29 09:50:20;;;;;;;;;15.00;14.50;;;;;-147.17;100.00;42100.47;5087341;27;51990;-62
2023/05/29 09:52:46;;;;;;;;;16.25;15.00;;;;;-147.17;100.00;42179.03;5077735;27;51103;-63
2023/05/29 09:55:17;;;;;;;;;18.75;18.25;;;;;-147.17;100.00;42080.81;5090120;27;51238;-63
2023/05/29 09:57:46;;;;;;;;;21.75;21.00;;;;;-147.17;100.00;42031.69;5080684;27;50999;-63
2023/05/29 10:00:12;;;;;;;;;17.75;17.00;;;;;-147.17;100.00;41951.16;5089480;27;51100;-64
2023/05/29 10:02:39;;;;;;;;;16.00;16.00;;;;;-147.17;100.00;42102.41;5078154;27;51085;-63
2023/05/29 10:05:07;;;;;;;;;17.00;17.00;;;;;-147.17;100.00;42151.53;5091328;27;51209;-63
2023/05/29 10:07:36;;;;;;;;;15.25;15.25;;;;;-147.17;100.00;42418.72;5087830;27;51283;-63
2023/05/29 10:10:04;;;;;;;;;15.25;15.25;;;;;-147.17;100.00;42599.47;5083607;27;51295;-63
2023/05/29 10:12:33;;;;;;;;;18.25;18.25;;;;;-147.17;100.00;42456.03;5085980;27;51243;-62
2023/05/29 10:15:00;;;;;;;;;18.75;17.75;;;;;-147.17;100.00;42548.38;5083894;27;51338;-62
2023/05/29 10:17:33;;;;;;;;;19.50;19.25;;;;;-147.17;100.00;43181.06;5090548;27;51306;-64
2023/05/29 10:20:02;;;;;;;;;21.00;20.25;;;;;-147.17;100.00;44167.59;5079496;27;51408;-63
2023/05/29 10:22:30;;;;;;;;;27.25;26.00;;;;;-147.17;100.00;44741.56;5080950;27;51127;-63
2023/05/29 10:24:56;;;;;;;;;19.75;19.25;;;;;-147.17;100.00;45148.50;5080368;27;51314;-63
2023/05/29 10:27:22;;;;;;;;;20.00;19.25;;;;;-147.17;100.00;45614.44;5086065;27;50834;-64
2023/05/29 10:29:48;;;;;;;;;19.00;18.00;;;;;-147.17;100.00;45803.22;5094120;27;52003;-63
2023/05/29 10:32:32;;;;;;;;;21.75;20.75;;;;;-147.17;100.00;45942.81;5094763;27;51706;-63
2023/05/29 10:35:11;;;;;;;;;21.50;20.25;;;;;-147.17;100.00;46342.00;5083907;27;51626;-63
2023/05/29 10:37:48;;;;;;;;;21.00;19.75;;;;;-147.17;100.00;46727.47;5084187;27;51266;-64
2023/05/29 10:40:14;;;;;;;;;20.25;20.00;;;;;-147.17;100.00;46991.03;5085616;27;51160;-64
2023/05/29 10:42:45;;;;;;;;;19.75;19.75;;;;;-147.17;100.00;47244.75;5088989;27;51776;-64
2023/05/29 10:45:31;;;;;;;;;21.00;20.75;;;;;-147.17;100.00;47372.63;5087802;27;51188;-64
2023/05/29 10:48:16;;;;;;;;;21.50;20.50;;;;;-147.17;100.00;47502.44;5093822;27;53809;-63
2023/05/29 10:50:46;;;;;;;;;22.50;21.25;;;;;-147.17;100.00;47427.69;5088882;27;51518;-63
2023/05/29 10:53:24;;;;;;;;;22.50;22.00;;;;;-147.17;100.00;47433.59;5089038;27;51269;-63